Main page
METAR-TAF:

METAR-TAF

Airports :

Alice Springs, Australia

Alice Springs Airport

latitude: 23-48S, longitude: 133-53E, elevation: 545 m

Current weather observation

The report was made 33 minutes ago, at 10:00 UTC
Wind 6 kt from the Southeast
Temperature 17°C
Pressure 1022 hPa
Visibility 10 km or more
Scattered clouds at a height of 10500 ft

METAR: YBAS 281000Z AUTO 14006KT 9999 // SCT105 17/// Q1022 RF00.0/000.4

Time: 20:03 (10:33 UTC)

Forecast

The report was made 5 hours and 17 minutes ago, at 05:16 UTC
Forecast valid from 28 at 06 UTC to 29 at 06 UTC
Wind 9 kt from the Southeast
Visibility 10 km or more
no clouds below 1500 m and no cumulonimbus
From 28 at 1200 UTC
Wind 5 kt from the East/Southeast
Visibility 10 km or more
no clouds below 1500 m and no cumulonimbus
From 29 at 0000 UTC
Wind 10 kt from the East/Southeast
Visibility 10 km or more
no clouds below 1500 m and no cumulonimbus

TAF: YBAS 280516Z 2806/2906 13009KT CAVOK FM281200 12005KT CAVOK FM290000 11010KT CAVOK

Weather observations and forecasts of more than 4000 airports (METAR and TAF reports).

The available stations are represented by yellow and red dots on the map.

Hover mouse over dot to see the name of the station.

Then click to see weather observations and forecasts.

To change the map : click on the green buttons with a black cross to zoom in, on the green button with a dash to zoom out, or on the green arrows for adjacent maps.


METAR-TAF: